sensor_id;sensor_type;location;lat;lon;timestamp;temperature;humidity
11112;DHT22;5609;49.466;8.468;2023-12-20T08:40:33;2.50;99.90
11112;DHT22;5609;49.466;8.468;2023-12-20T08:42:59;6.30;99.90
11112;DHT22;5609;49.466;8.468;2023-12-20T08:45:26;6.30;99.90
11112;DHT22;5609;49.466;8.468;2023-12-20T08:47:52;6.40;99.90
11112;DHT22;5609;49.466;8.468;2023-12-20T08:50:19;6.50;99.90
11112;DHT22;5609;49.466;8.468;2023-12-20T08:52:46;6.50;99.90
11112;DHT22;5609;49.466;8.468;2023-12-20T08:55:12;6.50;99.90
11112;DHT22;5609;49.466;8.468;2023-12-20T08:57:41;6.50;99.90
11112;DHT22;5609;49.466;8.468;2023-12-20T09:00:09;6.60;99.90
11112;DHT22;5609;49.466;8.468;2023-12-20T09:02:35;6.50;99.90
11112;DHT22;5609;49.466;8.468;2023-12-20T09:05:03;6.60;99.90
11112;DHT22;5609;49.466;8.468;2023-12-20T09:07:30;6.60;99.90
11112;DHT22;5609;49.466;8.468;2023-12-20T09:09:57;6.60;99.90
11112;DHT22;5609;49.466;8.468;2023-12-20T09:12:25;6.70;99.90
11112;DHT22;5609;49.466;8.468;2023-12-20T09:14:53;6.70;99.90
11112;DHT22;5609;49.466;8.468;2023-12-20T09:17:19;6.70;99.90
11112;DHT22;5609;49.466;8.468;2023-12-20T09:19:48;6.80;99.90
11112;DHT22;5609;49.466;8.468;2023-12-20T09:22:15;6.80;99.90
11112;DHT22;5609;49.466;8.468;2023-12-20T09:24:41;6.90;99.90
11112;DHT22;5609;49.466;8.468;2023-12-20T09:27:08;6.90;99.90
11112;DHT22;5609;49.466;8.468;2023-12-20T09:29:34;7.00;99.90
11112;DHT22;5609;49.466;8.468;2023-12-20T09:32:03;7.10;99.90
11112;DHT22;5609;49.466;8.468;2023-12-20T09:34:29;7.00;99.90
11112;DHT22;5609;49.466;8.468;2023-12-20T09:36:56;7.10;99.90
11112;DHT22;5609;49.466;8.468;2023-12-20T09:39:23;7.20;99.90
11112;DHT22;5609;49.466;8.468;2023-12-20T09:41:57;7.20;99.90
11112;DHT22;5609;49.466;8.468;2023-12-20T09:44:26;7.30;99.90
11112;DHT22;5609;49.466;8.468;2023-12-20T09:46:53;7.30;99.90
11112;DHT22;5609;49.466;8.468;2023-12-20T09:49:22;7.30;99.90
11112;DHT22;5609;49.466;8.468;2023-12-20T09:51:50;7.30;99.90
11112;DHT22;5609;49.466;8.468;2023-12-20T09:54:18;7.40;99.90
11112;DHT22;5609;49.466;8.468;2023-12-20T09:56:44;7.30;99.90
11112;DHT22;5609;49.466;8.468;2023-12-20T09:59:11;7.40;99.90
11112;DHT22;5609;49.466;8.468;2023-12-20T10:01:38;7.50;99.90
11112;DHT22;5609;49.466;8.468;2023-12-20T10:04:07;7.60;99.90
11112;DHT22;5609;49.466;8.468;2023-12-20T10:06:36;7.60;99.90
11112;DHT22;5609;49.466;8.468;2023-12-20T10:09:03;7.70;99.90
11112;DHT22;5609;49.466;8.468;2023-12-20T10:11:31;7.60;99.90
11112;DHT22;5609;49.466;8.468;2023-12-20T10:13:59;7.70;99.90
11112;DHT22;5609;49.466;8.468;2023-12-20T10:16:27;7.80;99.90
11112;DHT22;5609;49.466;8.468;2023-12-20T10:18:54;7.80;99.90
11112;DHT22;5609;49.466;8.468;2023-12-20T10:21:21;7.90;99.90
11112;DHT22;5609;49.466;8.468;2023-12-20T10:23:49;7.90;99.90
11112;DHT22;5609;49.466;8.468;2023-12-20T10:26:19;7.80;99.90
11112;DHT22;5609;49.466;8.468;2023-12-20T10:28:46;7.80;99.90
11112;DHT22;5609;49.466;8.468;2023-12-20T10:31:26;7.80;99.90
11112;DHT22;5609;49.466;8.468;2023-12-20T10:33:52;7.80;99.90
11112;DHT22;5609;49.466;8.468;2023-12-20T10:36:19;7.70;99.90
11112;DHT22;5609;49.466;8.468;2023-12-20T10:38:50;7.70;99.90
11112;DHT22;5609;49.466;8.468;2023-12-20T10:41:20;7.70;99.90
11112;DHT22;5609;49.466;8.468;2023-12-20T10:43:51;7.70;99.90
11112;DHT22;5609;49.466;8.468;2023-12-20T10:46:18;7.70;99.90
11112;DHT22;5609;49.466;8.468;2023-12-20T10:48:45;7.80;99.90
11112;DHT22;5609;49.466;8.468;2023-12-20T10:51:14;7.90;99.90
11112;DHT22;5609;49.466;8.468;2023-12-20T10:53:44;7.90;99.90
11112;DHT22;5609;49.466;8.468;2023-12-20T10:56:15;7.90;99.90
11112;DHT22;5609;49.466;8.468;2023-12-20T10:58:43;8.00;99.90
11112;DHT22;5609;49.466;8.468;2023-12-20T11:01:12;8.00;99.90
11112;DHT22;5609;49.466;8.468;2023-12-20T11:03:43;8.00;99.90
11112;DHT22;5609;49.466;8.468;2023-12-20T11:06:17;7.90;99.90
11112;DHT22;5609;49.466;8.468;2023-12-20T11:08:49;7.90;99.90
11112;DHT22;5609;49.466;8.468;2023-12-20T11:11:26;7.90;99.90
11112;DHT22;5609;49.466;8.468;2023-12-20T11:13:58;7.90;99.90
11112;DHT22;5609;49.466;8.468;2023-12-20T11:16:26;7.90;99.90
11112;DHT22;5609;49.466;8.468;2023-12-20T11:18:53;7.90;99.90
11112;DHT22;5609;49.466;8.468;2023-12-20T11:21:20;7.90;99.90
11112;DHT22;5609;49.466;8.468;2023-12-20T11:23:47;7.90;99.90
11112;DHT22;5609;49.466;8.468;2023-12-20T11:26:15;7.80;99.90
11112;DHT22;5609;49.466;8.468;2023-12-20T11:28:43;7.80;99.90
11112;DHT22;5609;49.466;8.468;2023-12-20T11:31:13;7.80;99.90
11112;DHT22;5609;49.466;8.468;2023-12-20T11:33:40;7.80;99.90
11112;DHT22;5609;49.466;8.468;2023-12-20T11:36:13;7.70;99.90
11112;DHT22;5609;49.466;8.468;2023-12-20T11:38:53;7.70;99.90
11112;DHT22;5609;49.466;8.468;2023-12-20T11:41:22;7.70;99.90
11112;DHT22;5609;49.466;8.468;2023-12-20T11:43:52;7.60;99.90
11112;DHT22;5609;49.466;8.468;2023-12-20T11:46:19;7.70;99.90
11112;DHT22;5609;49.466;8.468;2023-12-20T11:48:47;7.60;99.90
11112;DHT22;5609;49.466;8.468;2023-12-20T11:51:14;7.70;99.90
11112;DHT22;5609;49.466;8.468;2023-12-20T11:53:41;7.60;99.90
11112;DHT22;5609;49.466;8.468;2023-12-20T11:56:09;7.60;99.90
11112;DHT22;5609;49.466;8.468;2023-12-20T11:58:36;7.50;99.90
11112;DHT22;5609;49.466;8.468;2023-12-20T12:01:04;7.40;99.90
11112;DHT22;5609;49.466;8.468;2023-12-20T12:03:32;7.50;99.90
11112;DHT22;5609;49.466;8.468;2023-12-20T12:05:59;7.50;99.90
11112;DHT22;5609;49.466;8.468;2023-12-20T12:08:26;7.40;99.90
11112;DHT22;5609;49.466;8.468;2023-12-20T12:10:53;7.40;99.90
11112;DHT22;5609;49.466;8.468;2023-12-20T12:13:19;7.40;99.90
11112;DHT22;5609;49.466;8.468;2023-12-20T12:15:47;7.40;99.90
11112;DHT22;5609;49.466;8.468;2023-12-20T12:18:17;7.30;99.90
11112;DHT22;5609;49.466;8.468;2023-12-20T12:20:43;7.30;99.90
11112;DHT22;5609;49.466;8.468;2023-12-20T12:23:11;7.30;99.90
11112;DHT22;5609;49.466;8.468;2023-12-20T12:25:37;7.30;99.90
11112;DHT22;5609;49.466;8.468;2023-12-20T12:28:05;7.20;99.90
11112;DHT22;5609;49.466;8.468;2023-12-20T12:30:32;7.30;99.90
11112;DHT22;5609;49.466;8.468;2023-12-20T12:32:59;7.30;99.90
11112;DHT22;5609;49.466;8.468;2023-12-20T12:35:27;7.40;99.90
11112;DHT22;5609;49.466;8.468;2023-12-20T12:37:53;7.40;99.90
11112;DHT22;5609;49.466;8.468;2023-12-20T12:40:20;7.40;99.90
11112;DHT22;5609;49.466;8.468;2023-12-20T12:42:47;7.40;99.90
11112;DHT22;5609;49.466;8.468;2023-12-20T12:45:13;7.40;99.90
11112;DHT22;5609;49.466;8.468;2023-12-20T12:47:41;7.40;99.90
11112;DHT22;5609;49.466;8.468;2023-12-20T12:50:08;7.40;99.90
11112;DHT22;5609;49.466;8.468;2023-12-20T12:52:37;7.30;99.90
11112;DHT22;5609;49.466;8.468;2023-12-20T12:55:04;7.30;99.90
11112;DHT22;5609;49.466;8.468;2023-12-20T12:57:31;7.30;99.90
11112;DHT22;5609;49.466;8.468;2023-12-20T12:59:59;7.30;99.90
11112;DHT22;5609;49.466;8.468;2023-12-20T13:02:25;7.30;99.90
11112;DHT22;5609;49.466;8.468;2023-12-20T13:04:52;7.30;99.90
11112;DHT22;5609;49.466;8.468;2023-12-20T13:07:19;7.30;99.90
11112;DHT22;5609;49.466;8.468;2023-12-20T13:09:47;7.30;99.90
11112;DHT22;5609;49.466;8.468;2023-12-20T13:12:14;7.40;99.90
11112;DHT22;5609;49.466;8.468;2023-12-20T13:14:41;7.40;99.90
11112;DHT22;5609;49.466;8.468;2023-12-20T13:17:07;7.30;99.90
11112;DHT22;5609;49.466;8.468;2023-12-20T13:19:34;7.30;99.90
11112;DHT22;5609;49.466;8.468;2023-12-20T13:22:01;7.30;99.90
11112;DHT22;5609;49.466;8.468;2023-12-20T13:24:28;7.40;99.90
11112;DHT22;5609;49.466;8.468;2023-12-20T13:26:56;7.40;99.90
11112;DHT22;5609;49.466;8.468;2023-12-20T13:29:24;7.50;99.90
11112;DHT22;5609;49.466;8.468;2023-12-20T13:31:52;7.50;99.90
11112;DHT22;5609;49.466;8.468;2023-12-20T13:34:19;7.60;99.90
11112;DHT22;5609;49.466;8.468;2023-12-20T13:36:46;7.60;99.90
11112;DHT22;5609;49.466;8.468;2023-12-20T13:39:16;7.70;99.90
11112;DHT22;5609;49.466;8.468;2023-12-20T13:41:43;7.70;99.90
11112;DHT22;5609;49.466;8.468;2023-12-20T13:44:11;7.80;99.90
11112;DHT22;5609;49.466;8.468;2023-12-20T13:46:39;7.80;99.90
11112;DHT22;5609;49.466;8.468;2023-12-20T13:49:06;7.90;99.90
11112;DHT22;5609;49.466;8.468;2023-12-20T13:51:33;7.90;99.90
11112;DHT22;5609;49.466;8.468;2023-12-20T13:53:59;8.00;99.90
11112;DHT22;5609;49.466;8.468;2023-12-20T13:56:26;8.10;99.90
11112;DHT22;5609;49.466;8.468;2023-12-20T13:58:53;8.50;99.90
11112;DHT22;5609;49.466;8.468;2023-12-20T14:01:22;9.00;99.90
11112;DHT22;5609;49.466;8.468;2023-12-20T14:03:49;9.30;99.90
11112;DHT22;5609;49.466;8.468;2023-12-20T14:06:16;9.70;99.90
11112;DHT22;5609;49.466;8.468;2023-12-20T14:08:43;10.10;99.90
11112;DHT22;5609;49.466;8.468;2023-12-20T14:11:10;10.30;99.90
11112;DHT22;5609;49.466;8.468;2023-12-20T14:13:37;10.20;99.90
11112;DHT22;5609;49.466;8.468;2023-12-20T14:16:04;10.40;99.90
11112;DHT22;5609;49.466;8.468;2023-12-20T14:18:33;10.40;99.90
11112;DHT22;5609;49.466;8.468;2023-12-20T14:20:59;10.30;99.90
11112;DHT22;5609;49.466;8.468;2023-12-20T14:23:26;10.20;99.90
11112;DHT22;5609;49.466;8.468;2023-12-20T14:25:53;10.40;99.90
11112;DHT22;5609;49.466;8.468;2023-12-20T14:28:21;10.50;99.90
11112;DHT22;5609;49.466;8.468;2023-12-20T14:30:48;10.30;99.90
11112;DHT22;5609;49.466;8.468;2023-12-20T14:33:15;10.10;99.90
11112;DHT22;5609;49.466;8.468;2023-12-20T14:35:44;10.00;99.90
11112;DHT22;5609;49.466;8.468;2023-12-20T14:38:10;9.80;99.90
11112;DHT22;5609;49.466;8.468;2023-12-20T14:40:39;9.50;99.90
11112;DHT22;5609;49.466;8.468;2023-12-20T14:43:06;9.20;99.90
11112;DHT22;5609;49.466;8.468;2023-12-20T14:45:32;9.00;99.90
11112;DHT22;5609;49.466;8.468;2023-12-20T14:47:59;8.80;99.90
11112;DHT22;5609;49.466;8.468;2023-12-20T14:50:26;8.60;99.90
11112;DHT22;5609;49.466;8.468;2023-12-20T14:52:54;8.40;99.90
11112;DHT22;5609;49.466;8.468;2023-12-20T14:55:21;8.20;99.90
11112;DHT22;5609;49.466;8.468;2023-12-20T14:57:48;8.10;99.90
11112;DHT22;5609;49.466;8.468;2023-12-20T15:00:15;8.00;99.90
11112;DHT22;5609;49.466;8.468;2023-12-20T15:02:42;7.90;99.90
11112;DHT22;5609;49.466;8.468;2023-12-20T15:05:09;7.90;99.90
11112;DHT22;5609;49.466;8.468;2023-12-20T15:07:36;7.80;99.90
11112;DHT22;5609;49.466;8.468;2023-12-20T15:10:05;7.70;99.90
11112;DHT22;5609;49.466;8.468;2023-12-20T15:12:32;7.60;99.90
11112;DHT22;5609;49.466;8.468;2023-12-20T15:14:59;7.50;99.90
11112;DHT22;5609;49.466;8.468;2023-12-20T15:17:26;7.40;99.90
11112;DHT22;5609;49.466;8.468;2023-12-20T15:19:53;7.40;99.90
11112;DHT22;5609;49.466;8.468;2023-12-20T15:22:19;7.40;99.90
11112;DHT22;5609;49.466;8.468;2023-12-20T15:24:46;7.30;99.90
11112;DHT22;5609;49.466;8.468;2023-12-20T15:27:14;7.20;99.90
11112;DHT22;5609;49.466;8.468;2023-12-20T15:29:41;7.10;99.90
11112;DHT22;5609;49.466;8.468;2023-12-20T15:32:08;7.10;99.90
11112;DHT22;5609;49.466;8.468;2023-12-20T15:34:34;7.10;99.90
11112;DHT22;5609;49.466;8.468;2023-12-20T15:37:01;7.20;99.90
11112;DHT22;5609;49.466;8.468;2023-12-20T15:39:28;7.10;99.90
11112;DHT22;5609;49.466;8.468;2023-12-20T15:41:54;7.10;99.90
11112;DHT22;5609;49.466;8.468;2023-12-20T15:44:22;7.00;99.90
11112;DHT22;5609;49.466;8.468;2023-12-20T15:46:49;7.00;99.90
11112;DHT22;5609;49.466;8.468;2023-12-20T15:49:18;7.00;99.90
11112;DHT22;5609;49.466;8.468;2023-12-20T15:51:44;6.90;99.90
11112;DHT22;5609;49.466;8.468;2023-12-20T15:54:11;6.90;99.90
11112;DHT22;5609;49.466;8.468;2023-12-20T15:56:38;6.90;99.90
11112;DHT22;5609;49.466;8.468;2023-12-20T15:59:06;6.90;99.90
11112;DHT22;5609;49.466;8.468;2023-12-20T16:01:36;6.90;99.90
11112;DHT22;5609;49.466;8.468;2023-12-20T16:04:03;7.00;99.90
11112;DHT22;5609;49.466;8.468;2023-12-20T16:06:30;7.00;99.90
11112;DHT22;5609;49.466;8.468;2023-12-20T16:08:57;7.00;99.90
11112;DHT22;5609;49.466;8.468;2023-12-20T16:11:23;7.00;99.90
11112;DHT22;5609;49.466;8.468;2023-12-20T16:13:50;7.00;99.90
11112;DHT22;5609;49.466;8.468;2023-12-20T16:16:17;6.90;99.90
11112;DHT22;5609;49.466;8.468;2023-12-20T16:18:45;7.00;99.90
11112;DHT22;5609;49.466;8.468;2023-12-20T16:21:11;7.00;99.90
11112;DHT22;5609;49.466;8.468;2023-12-20T16:23:38;7.00;99.90
11112;DHT22;5609;49.466;8.468;2023-12-20T16:26:05;6.90;99.90
11112;DHT22;5609;49.466;8.468;2023-12-20T16:28:31;7.00;99.90
11112;DHT22;5609;49.466;8.468;2023-12-20T16:30:58;7.00;99.90
11112;DHT22;5609;49.466;8.468;2023-12-20T16:33:24;7.10;99.90
11112;DHT22;5609;49.466;8.468;2023-12-20T16:35:55;7.00;99.90
11112;DHT22;5609;49.466;8.468;2023-12-20T16:38:21;7.20;99.90
11112;DHT22;5609;49.466;8.468;2023-12-20T16:40:48;7.10;99.90
11112;DHT22;5609;49.466;8.468;2023-12-20T16:43:15;7.10;99.90
11112;DHT22;5609;49.466;8.468;2023-12-20T16:45:41;7.00;99.90
11112;DHT22;5609;49.466;8.468;2023-12-20T16:48:08;7.10;99.90
11112;DHT22;5609;49.466;8.468;2023-12-20T16:50:35;7.10;99.90
11112;DHT22;5609;49.466;8.468;2023-12-20T16:53:03;7.00;99.90
11112;DHT22;5609;49.466;8.468;2023-12-20T16:55:30;7.10;99.90
11112;DHT22;5609;49.466;8.468;2023-12-20T16:57:57;7.10;99.90
11112;DHT22;5609;49.466;8.468;2023-12-20T17:00:23;7.20;99.90
11112;DHT22;5609;49.466;8.468;2023-12-20T17:02:51;7.10;99.90
11112;DHT22;5609;49.466;8.468;2023-12-20T17:05:18;7.10;99.90
11112;DHT22;5609;49.466;8.468;2023-12-20T17:07:45;7.20;99.90
11112;DHT22;5609;49.466;8.468;2023-12-20T17:10:13;7.10;99.90
11112;DHT22;5609;49.466;8.468;2023-12-20T17:12:39;7.10;99.90
11112;DHT22;5609;49.466;8.468;2023-12-20T17:15:07;7.10;99.90
11112;DHT22;5609;49.466;8.468;2023-12-20T17:17:34;7.00;99.90
11112;DHT22;5609;49.466;8.468;2023-12-20T17:20:02;7.10;99.90
11112;DHT22;5609;49.466;8.468;2023-12-20T17:22:29;7.10;99.90
11112;DHT22;5609;49.466;8.468;2023-12-20T17:24:56;7.00;99.90
11112;DHT22;5609;49.466;8.468;2023-12-20T17:27:24;7.10;99.90
11112;DHT22;5609;49.466;8.468;2023-12-20T17:29:51;7.10;99.90
11112;DHT22;5609;49.466;8.468;2023-12-20T17:32:17;7.10;99.90
11112;DHT22;5609;49.466;8.468;2023-12-20T17:34:44;7.00;99.90
11112;DHT22;5609;49.466;8.468;2023-12-20T17:37:11;7.10;99.90
11112;DHT22;5609;49.466;8.468;2023-12-20T17:39:38;7.10;99.90
11112;DHT22;5609;49.466;8.468;2023-12-20T17:42:04;7.10;99.90
11112;DHT22;5609;49.466;8.468;2023-12-20T17:44:33;7.10;99.90
11112;DHT22;5609;49.466;8.468;2023-12-20T17:46:59;7.10;99.90
11112;DHT22;5609;49.466;8.468;2023-12-20T17:49:26;7.10;99.90
11112;DHT22;5609;49.466;8.468;2023-12-20T17:51:53;7.10;99.90
11112;DHT22;5609;49.466;8.468;2023-12-20T17:54:19;7.10;99.90
11112;DHT22;5609;49.466;8.468;2023-12-20T17:56:46;7.20;99.90
11112;DHT22;5609;49.466;8.468;2023-12-20T17:59:13;7.10;99.90
11112;DHT22;5609;49.466;8.468;2023-12-20T18:01:41;7.10;99.90
11112;DHT22;5609;49.466;8.468;2023-12-20T18:04:08;7.20;99.90
11112;DHT22;5609;49.466;8.468;2023-12-20T18:06:34;7.20;99.90
11112;DHT22;5609;49.466;8.468;2023-12-20T18:09:01;7.30;99.90
11112;DHT22;5609;49.466;8.468;2023-12-20T18:11:28;7.20;99.90
11112;DHT22;5609;49.466;8.468;2023-12-20T18:13:55;7.20;99.90
11112;DHT22;5609;49.466;8.468;2023-12-20T18:16:22;7.20;99.90
11112;DHT22;5609;49.466;8.468;2023-12-20T18:18:50;7.20;99.90
11112;DHT22;5609;49.466;8.468;2023-12-20T18:21:16;7.20;99.90
11112;DHT22;5609;49.466;8.468;2023-12-20T18:23:43;7.20;99.90
11112;DHT22;5609;49.466;8.468;2023-12-20T18:26:10;7.20;99.90
11112;DHT22;5609;49.466;8.468;2023-12-20T18:28:36;7.20;99.90
11112;DHT22;5609;49.466;8.468;2023-12-20T18:31:03;7.20;99.90
11112;DHT22;5609;49.466;8.468;2023-12-20T18:33:30;7.30;99.90
11112;DHT22;5609;49.466;8.468;2023-12-20T18:36:00;7.20;99.90
11112;DHT22;5609;49.466;8.468;2023-12-20T18:38:26;7.30;99.90
11112;DHT22;5609;49.466;8.468;2023-12-20T18:40:55;7.20;99.90
11112;DHT22;5609;49.466;8.468;2023-12-20T18:43:22;7.20;99.90
11112;DHT22;5609;49.466;8.468;2023-12-20T18:45:50;7.20;99.90
11112;DHT22;5609;49.466;8.468;2023-12-20T18:48:17;7.20;99.90
11112;DHT22;5609;49.466;8.468;2023-12-20T18:50:44;7.30;99.90
11112;DHT22;5609;49.466;8.468;2023-12-20T18:53:12;7.20;99.90
11112;DHT22;5609;49.466;8.468;2023-12-20T18:55:39;7.20;99.90
11112;DHT22;5609;49.466;8.468;2023-12-20T18:58:05;7.30;99.90
11112;DHT22;5609;49.466;8.468;2023-12-20T19:00:32;7.30;99.90
11112;DHT22;5609;49.466;8.468;2023-12-20T19:02:59;7.30;99.90
11112;DHT22;5609;49.466;8.468;2023-12-20T19:05:25;7.30;99.90
11112;DHT22;5609;49.466;8.468;2023-12-20T19:07:52;7.30;99.90
11112;DHT22;5609;49.466;8.468;2023-12-20T19:10:20;7.30;99.90
11112;DHT22;5609;49.466;8.468;2023-12-20T19:12:47;7.40;99.90
11112;DHT22;5609;49.466;8.468;2023-12-20T19:15:14;7.40;99.90
11112;DHT22;5609;49.466;8.468;2023-12-20T19:17:41;7.30;99.90
11112;DHT22;5609;49.466;8.468;2023-12-20T19:20:08;7.40;99.90
11112;DHT22;5609;49.466;8.468;2023-12-20T19:22:35;7.40;99.90
11112;DHT22;5609;49.466;8.468;2023-12-20T19:25:01;7.40;99.90
11112;DHT22;5609;49.466;8.468;2023-12-20T19:27:35;7.40;99.90
11112;DHT22;5609;49.466;8.468;2023-12-20T19:30:01;7.40;99.90
11112;DHT22;5609;49.466;8.468;2023-12-20T19:32:28;7.40;99.90
11112;DHT22;5609;49.466;8.468;2023-12-20T19:34:55;7.40;99.90
11112;DHT22;5609;49.466;8.468;2023-12-20T19:37:21;7.40;99.90
11112;DHT22;5609;49.466;8.468;2023-12-20T19:39:48;7.40;99.90
11112;DHT22;5609;49.466;8.468;2023-12-20T19:42:15;7.30;99.90
11112;DHT22;5609;49.466;8.468;2023-12-20T19:44:43;7.40;99.90
11112;DHT22;5609;49.466;8.468;2023-12-20T19:47:09;7.40;99.90
11112;DHT22;5609;49.466;8.468;2023-12-20T19:49:37;7.40;99.90
11112;DHT22;5609;49.466;8.468;2023-12-20T19:52:06;7.40;99.90
11112;DHT22;5609;49.466;8.468;2023-12-20T19:54:33;7.40;99.90
11112;DHT22;5609;49.466;8.468;2023-12-20T19:57:00;7.40;99.90
11112;DHT22;5609;49.466;8.468;2023-12-20T19:59:26;7.50;99.90
11112;DHT22;5609;49.466;8.468;2023-12-20T20:01:54;7.40;99.90
11112;DHT22;5609;49.466;8.468;2023-12-20T20:04:21;7.40;99.90
11112;DHT22;5609;49.466;8.468;2023-12-20T20:06:48;7.40;99.90
11112;DHT22;5609;49.466;8.468;2023-12-20T20:09:16;7.40;99.90
11112;DHT22;5609;49.466;8.468;2023-12-20T20:11:43;7.40;99.90
11112;DHT22;5609;49.466;8.468;2023-12-20T20:14:10;7.40;99.90
11112;DHT22;5609;49.466;8.468;2023-12-20T20:16:37;7.40;99.90
11112;DHT22;5609;49.466;8.468;2023-12-20T20:19:05;7.40;99.90
11112;DHT22;5609;49.466;8.468;2023-12-20T20:21:31;7.40;99.90
11112;DHT22;5609;49.466;8.468;2023-12-20T20:23:58;7.40;99.90
11112;DHT22;5609;49.466;8.468;2023-12-20T20:26:25;7.30;99.90
11112;DHT22;5609;49.466;8.468;2023-12-20T20:28:51;7.30;99.90
11112;DHT22;5609;49.466;8.468;2023-12-20T20:31:18;7.30;99.90
11112;DHT22;5609;49.466;8.468;2023-12-20T20:33:45;7.20;99.90
11112;DHT22;5609;49.466;8.468;2023-12-20T20:36:13;7.10;99.90
11112;DHT22;5609;49.466;8.468;2023-12-20T20:38:39;7.10;99.90
11112;DHT22;5609;49.466;8.468;2023-12-20T20:41:06;7.00;99.90
11112;DHT22;5609;49.466;8.468;2023-12-20T20:43:33;7.00;99.90
11112;DHT22;5609;49.466;8.468;2023-12-20T20:45:59;7.00;99.90
11112;DHT22;5609;49.466;8.468;2023-12-20T20:48:27;7.00;99.90
11112;DHT22;5609;49.466;8.468;2023-12-20T20:50:54;7.00;99.90
11112;DHT22;5609;49.466;8.468;2023-12-20T20:53:22;7.00;99.90
11112;DHT22;5609;49.466;8.468;2023-12-20T20:55:49;7.00;99.90
11112;DHT22;5609;49.466;8.468;2023-12-20T20:58:15;7.00;99.90
11112;DHT22;5609;49.466;8.468;2023-12-20T21:00:42;7.00;99.90
11112;DHT22;5609;49.466;8.468;2023-12-20T21:03:08;6.90;99.90
11112;DHT22;5609;49.466;8.468;2023-12-20T21:05:35;6.90;99.90
11112;DHT22;5609;49.466;8.468;2023-12-20T21:08:02;6.80;99.90
11112;DHT22;5609;49.466;8.468;2023-12-20T21:10:30;6.80;99.90
11112;DHT22;5609;49.466;8.468;2023-12-20T21:12:56;6.80;99.90
11112;DHT22;5609;49.466;8.468;2023-12-20T21:15:23;6.70;99.90
11112;DHT22;5609;49.466;8.468;2023-12-20T21:17:49;6.70;99.90
11112;DHT22;5609;49.466;8.468;2023-12-20T21:20:16;6.70;99.90
11112;DHT22;5609;49.466;8.468;2023-12-20T21:22:43;6.70;99.90
11112;DHT22;5609;49.466;8.468;2023-12-20T21:25:10;6.60;99.90
11112;DHT22;5609;49.466;8.468;2023-12-20T21:27:38;6.60;99.90
11112;DHT22;5609;49.466;8.468;2023-12-20T21:30:07;6.60;99.90
11112;DHT22;5609;49.466;8.468;2023-12-20T21:32:35;6.60;99.90
11112;DHT22;5609;49.466;8.468;2023-12-20T21:35:02;6.60;99.90
11112;DHT22;5609;49.466;8.468;2023-12-20T21:37:28;6.60;99.90
11112;DHT22;5609;49.466;8.468;2023-12-20T21:39:55;6.60;99.90
11112;DHT22;5609;49.466;8.468;2023-12-20T21:42:22;6.60;99.90
11112;DHT22;5609;49.466;8.468;2023-12-20T21:44:50;6.60;99.90
11112;DHT22;5609;49.466;8.468;2023-12-20T21:47:16;6.60;99.90
11112;DHT22;5609;49.466;8.468;2023-12-20T21:49:43;6.60;99.90
11112;DHT22;5609;49.466;8.468;2023-12-20T21:52:09;6.60;99.90
11112;DHT22;5609;49.466;8.468;2023-12-20T21:54:36;6.50;99.90
11112;DHT22;5609;49.466;8.468;2023-12-20T21:57:03;6.60;99.90
11112;DHT22;5609;49.466;8.468;2023-12-20T21:59:30;6.60;99.90
11112;DHT22;5609;49.466;8.468;2023-12-20T22:01:58;6.60;99.90
11112;DHT22;5609;49.466;8.468;2023-12-20T22:04:25;6.50;99.90
11112;DHT22;5609;49.466;8.468;2023-12-20T22:06:52;6.50;99.90
11112;DHT22;5609;49.466;8.468;2023-12-20T22:09:18;6.50;99.90
11112;DHT22;5609;49.466;8.468;2023-12-20T22:11:45;6.50;99.90
11112;DHT22;5609;49.466;8.468;2023-12-20T22:14:11;6.50;99.90
11112;DHT22;5609;49.466;8.468;2023-12-20T22:16:38;6.50;99.90
11112;DHT22;5609;49.466;8.468;2023-12-20T22:19:07;6.60;99.90
11112;DHT22;5609;49.466;8.468;2023-12-20T22:21:34;6.50;99.90
11112;DHT22;5609;49.466;8.468;2023-12-20T22:24:01;6.50;99.90
11112;DHT22;5609;49.466;8.468;2023-12-20T22:26:28;6.50;99.90
11112;DHT22;5609;49.466;8.468;2023-12-20T22:28:55;6.60;99.90
11112;DHT22;5609;49.466;8.468;2023-12-20T22:31:22;6.60;99.90
11112;DHT22;5609;49.466;8.468;2023-12-20T22:33:49;6.60;99.90
11112;DHT22;5609;49.466;8.468;2023-12-20T22:36:17;6.60;99.90
11112;DHT22;5609;49.466;8.468;2023-12-20T22:38:44;6.60;99.90
11112;DHT22;5609;49.466;8.468;2023-12-20T22:41:10;6.50;99.90
11112;DHT22;5609;49.466;8.468;2023-12-20T22:43:38;6.50;99.90
11112;DHT22;5609;49.466;8.468;2023-12-20T22:46:05;6.50;99.90
11112;DHT22;5609;49.466;8.468;2023-12-20T22:48:32;6.50;99.90
11112;DHT22;5609;49.466;8.468;2023-12-20T22:50:58;6.50;99.90
11112;DHT22;5609;49.466;8.468;2023-12-20T22:53:26;6.40;99.90
11112;DHT22;5609;49.466;8.468;2023-12-20T22:55:53;6.50;99.90
11112;DHT22;5609;49.466;8.468;2023-12-20T22:58:19;6.50;99.90
11112;DHT22;5609;49.466;8.468;2023-12-20T23:00:46;6.50;99.90
11112;DHT22;5609;49.466;8.468;2023-12-20T23:03:13;6.50;99.90
11112;DHT22;5609;49.466;8.468;2023-12-20T23:05:41;6.50;99.90
11112;DHT22;5609;49.466;8.468;2023-12-20T23:08:08;6.60;99.90
11112;DHT22;5609;49.466;8.468;2023-12-20T23:10:37;6.60;99.90
11112;DHT22;5609;49.466;8.468;2023-12-20T23:13:03;6.50;99.90
11112;DHT22;5609;49.466;8.468;2023-12-20T23:15:30;6.50;99.90
11112;DHT22;5609;49.466;8.468;2023-12-20T23:17:57;6.40;99.90
11112;DHT22;5609;49.466;8.468;2023-12-20T23:20:24;6.40;99.90
11112;DHT22;5609;49.466;8.468;2023-12-20T23:22:51;6.50;99.90
11112;DHT22;5609;49.466;8.468;2023-12-20T23:25:18;6.50;99.90
11112;DHT22;5609;49.466;8.468;2023-12-20T23:27:46;6.50;99.90
11112;DHT22;5609;49.466;8.468;2023-12-20T23:30:15;6.50;99.90
11112;DHT22;5609;49.466;8.468;2023-12-20T23:32:42;6.50;99.90
11112;DHT22;5609;49.466;8.468;2023-12-20T23:35:08;6.40;99.90
11112;DHT22;5609;49.466;8.468;2023-12-20T23:37:35;6.50;99.90
11112;DHT22;5609;49.466;8.468;2023-12-20T23:40:01;6.40;99.90
11112;DHT22;5609;49.466;8.468;2023-12-20T23:42:27;6.60;99.90
11112;DHT22;5609;49.466;8.468;2023-12-20T23:44:55;6.80;99.90
11112;DHT22;5609;49.466;8.468;2023-12-20T23:47:22;6.90;99.90
11112;DHT22;5609;49.466;8.468;2023-12-20T23:49:48;7.20;99.90
11112;DHT22;5609;49.466;8.468;2023-12-20T23:52:15;7.20;99.90
11112;DHT22;5609;49.466;8.468;2023-12-20T23:54:43;7.10;99.90
11112;DHT22;5609;49.466;8.468;2023-12-20T23:57:09;7.20;99.90
11112;DHT22;5609;49.466;8.468;2023-12-20T23:59:36;7.20;99.90
